Flight Track Log - Related Links

Times and Time Zones

All times are in EDT time to prevent confusion due to time zone crossing. See the N717EB flight status page for this flight to view local times or setup timezone preferences in your user account.

Time Position Orientation Groundspeed Altitude Reporting Facility
EDT Latitude Longitude Course Direction KTS MPH feet Rate Location/Type
Thu 07:23:17 PM 37.8000 -122.3500 77° East 246 283 2,700  Level Northern Cal TRACON
Thu 07:24:17 PM 37.8333 -122.4167 302° West 244 281 4,100 1,826 Climbing Northern Cal TRACON
Thu 07:25:12 PM 37.9000 -122.4000 11° North 272 313 6,200 2,600 Climbing Northern Cal TRACON
Thu 07:26:17 PM 37.9000 -122.3000 90° East 291 335 9,300 2,468 Climbing Northern Cal TRACON
Thu 07:27:16 PM 37.9175 -122.2008 77° East 300 345 11,300 2,100 Climbing Oakland Center
Thu 07:28:00 PM 37.8478 -121.5238 77° East  Level Estimated
Thu 07:28:17 PM 37.9342 -122.0844 80° East 328 377 13,500  Level Oakland Center
Thu 07:29:19 PM 37.9503 -121.9642 80° East 343 395 15,700 2,098 Climbing Oakland Center
Thu 07:30:20 PM 37.9667 -121.8397 80° East 353 406 17,800 2,016 Climbing Oakland Center
Thu 07:31:21 PM 37.9836 -121.7083 81° East 370 426 19,800 2,000 Climbing Oakland Center
Thu 07:32:23 PM 38.0061 -121.5453 80° East 388 447 21,900 1,854 Climbing Oakland Center
Thu 07:33:24 PM 38.0225 -121.4206 80° East 396 456 23,600 1,610 Climbing Oakland Center
Thu 07:34:26 PM 38.0406 -121.2789 81° East 405 466 25,200 1,463 Climbing Oakland Center
Thu 07:35:27 PM 38.0592 -121.1314 81° East 422 486 26,600 1,463 Climbing Oakland Center
Thu 07:36:29 PM 38.0817 -120.9492 81° East 437 503 28,200 1,707 Climbing Oakland Center
Thu 07:37:30 PM 38.1036 -120.7964 80° East 442 509 30,100 1,854 Climbing Oakland Center
Thu 07:38:32 PM 38.1231 -120.6453 81° East 438 504 32,000 1,659 Climbing Oakland Center
Thu 07:39:33 PM 38.1431 -120.4956 80° East 434 499 33,500 1,415 Climbing Oakland Center
Thu 07:40:35 PM 38.1644 -120.3425 80° East 439 505 34,900 1,512 Climbing Oakland Center
Thu 07:41:36 PM 38.1836 -120.1903 81° East 440 506 36,600 1,475 Climbing Oakland Center
Thu 07:42:37 PM 38.2031 -120.0397 81° East 434 499 37,900 1,073 Climbing Oakland Center
Thu 07:43:39 PM 38.2272 -119.8558 80° East 438 504 38,800 537 Climbing Oakland Center
Thu 07:44:40 PM 38.2467 -119.6956 81° East 453 521 39,000 98 Climbing Oakland Center
Thu 07:45:42 PM 38.2672 -119.5278 81° East 472 543 39,000  Level Oakland Center
Thu 07:46:43 PM 38.2856 -119.3706 82° East 486 559 39,000  Level Oakland Center
Thu 07:47:45 PM 38.3075 -119.2025 81° East 485 558 39,000 390 Level Oakland Center
Thu 07:48:46 PM 38.3311 -118.9997 81° East 485 558 39,800 885 Climbing Oakland Center
Thu 07:49:47 PM 38.3442 -118.8361 84° East 472 543 40,800 585 Climbing Oakland Center
Thu 07:50:49 PM 38.3536 -118.6697 86° East 474 545 41,000 98 Climbing Oakland Center
Thu 07:51:50 PM 38.3642 -118.5025 85° East 476 548 41,000  Level Oakland Center
Thu 07:52:52 PM 38.3725 -118.3375 86° East 472 543 41,000  Level Oakland Center
Thu 07:53:53 PM 38.3819 -118.1728 86° East 469 540 41,000  Level Oakland Center
Thu 07:54:54 PM 38.3897 -118.0119 86° East 472 543 41,000  Level Oakland Center
Thu 07:55:55 PM 38.4000 -117.8128 86° East 469 540 41,000  Level Oakland Center
Thu 07:56:57 PM 38.4081 -117.6458 86° East 471 542 41,000  Level Oakland Center
Thu 07:57:58 PM 38.4153 -117.4786 87° East 469 540 41,000  Level Oakland Center
Thu 07:58:49 PM 38.4214 -117.3439 87° East 469 540 41,000  Level Salt Lake Center
Thu 07:59:51 PM 38.4281 -117.1756 87° East 469 540 41,000  Level Salt Lake Center
Thu 08:01:02 PM 38.4386 -116.9731 86° East 471 542 41,000  Level Oakland Center
Thu 08:02:03 PM 38.4458 -116.8042 87° East 473 544 41,000  Level Oakland Center
Thu 08:03:05 PM 38.4525 -116.6369 87° East 472 543 41,000  Level Oakland Center
Thu 08:03:58 PM 38.4569 -116.5017 88° East 474 545 41,000  Level Salt Lake Center
Thu 08:05:07 PM 38.4656 -116.3008 87° East 472 543 41,000  Level Oakland Center
Thu 08:06:08 PM 38.4714 -116.1328 87° East 474 545 41,000  Level Oakland Center
Thu 08:07:03 PM 38.4772 -115.9639 87° East 476 548 41,000  Level Salt Lake Center
Thu 08:08:04 PM 38.4828 -115.7956 88° East 476 548 41,000  Level Salt Lake Center
Thu 08:09:06 PM 38.4875 -115.6256 88° East 478 550 41,000  Level Salt Lake Center
Thu 08:10:08 PM 38.4933 -115.4572 87° East 476 548 41,000  Level Salt Lake Center
Thu 08:11:09 PM 38.4975 -115.2878 88° East 479 551 41,000  Level Salt Lake Center
Thu 08:12:11 PM 38.5036 -115.1164 87° East 483 556 41,000  Level Salt Lake Center
Thu 08:13:13 PM 38.5075 -114.9464 88° East 482 555 41,000  Level Salt Lake Center
Thu 08:14:14 PM 38.5133 -114.7425 88° East 480 552 41,000  Level Salt Lake Center
Thu 08:15:16 PM 38.5158 -114.5728 89° East 479 551 41,000  Level Salt Lake Center
Thu 08:16:18 PM 38.5203 -114.4014 88° East 483 556 41,000  Level Salt Lake Center
Thu 08:17:20 PM 38.5253 -114.2286 88° East 487 560 41,000  Level Salt Lake Center
Thu 08:18:21 PM 38.5275 -114.0581 89° East 482 555 41,000  Level Salt Lake Center
Thu 08:19:23 PM 38.5317 -113.8869 88° East 483 556 41,000  Level Salt Lake Center
Thu 08:20:25 PM 38.5339 -113.7158 89° East 481 554 41,000  Level Salt Lake Center
Thu 08:21:27 PM 38.5358 -113.5114 89° East 478 550 41,000  Level Salt Lake Center
Thu 08:22:29 PM 38.5389 -113.3403 89° East 480 552 41,000  Level Salt Lake Center
Thu 08:23:30 PM 38.5411 -113.1667 89° East 486 559 41,000  Level Salt Lake Center
Thu 08:24:32 PM 38.5419 -112.9958 90° East 483 556 41,000  Level Salt Lake Center
Thu 08:25:34 PM 38.5439 -112.8264 89° East 479 551 41,000  Level Salt Lake Center
Thu 08:26:36 PM 38.5447 -112.6542 90° East 481 554 41,000  Level Salt Lake Center
Thu 08:27:38 PM 38.5458 -112.4847 89° East 478 550 41,000  Level Salt Lake Center
Thu 08:28:40 PM 38.5469 -112.3150 89° East 478 550 41,000  Level Salt Lake Center
Thu 08:29:42 PM 38.5467 -112.1103 90° East 479 551 41,000  Level Salt Lake Center
Thu 08:30:43 PM 38.5464 -111.9389 90° East 481 554 41,000  Level Salt Lake Center
Thu 08:31:45 PM 38.5464 -111.7689 90° East 479 551 41,000  Level Salt Lake Center
Thu 08:32:47 PM 38.5461 -111.5986 90° East 480 552 41,000  Level Salt Lake Center
Thu 08:33:49 PM 38.5478 -111.4308 89° East 476 548 41,000  Level Salt Lake Center
Thu 08:34:51 PM 38.5469 -111.2611 90° East 478 550 41,000  Level Salt Lake Center
Thu 08:35:53 PM 38.5461 -111.0925 90° East 476 548 41,000  Level Salt Lake Center
Thu 08:36:55 PM 38.5439 -110.8911 91° East 477 549 41,000  Level Salt Lake Center
Thu 08:37:57 PM 38.5436 -110.7292 90° East 478 550 41,000  Level Salt Lake Center
Thu 08:38:59 PM 38.5411 -110.5392 91° East 480 552 41,000  Level Salt Lake Center
Thu 08:39:30 PM 38.5375 -110.4556 93° East 477 549 41,000  Level Denver Center
Thu 08:40:32 PM 38.5344 -110.2917 91° East 482 555 41,000  Level Denver Center
Thu 08:41:02 PM 38.5353 -110.1850 89° East 482 555 41,000  Level Salt Lake Center
Thu 08:41:34 PM 38.5325 -110.1011 92° East 480 552 41,000  Level Denver Center
Thu 08:42:36 PM 38.5294 -109.9364 91° East 481 554 41,000  Level Denver Center
Thu 08:43:38 PM 38.5253 -109.7442 92° East 486 559 41,000  Level Denver Center
Thu 08:44:40 PM 38.5231 -109.5847 91° East 477 549 41,000  Level Denver Center
Thu 08:45:42 PM 38.5194 -109.3950 91° East 478 550 41,000  Level Denver Center
Thu 08:46:44 PM 38.5164 -109.2311 91° East 480 552 41,000  Level Denver Center
Thu 08:47:46 PM 38.5111 -109.0408 92° East 482 555 41,000  Level Denver Center
Thu 08:48:48 PM 38.5075 -108.8792 92° East 478 550 41,000  Level Denver Center
Thu 08:49:50 PM 38.5022 -108.6892 92° East 482 555 41,000  Level Denver Center
Thu 08:50:52 PM 38.4981 -108.5278 92° East 479 551 41,000  Level Denver Center
Thu 08:51:54 PM 38.4917 -108.3406 92° East 475 547 41,000  Level Denver Center
Thu 08:52:56 PM 38.4869 -108.1792 92° East 477 549 41,000  Level Denver Center
Thu 08:53:57 PM 38.4808 -107.9947 92° East 469 540 41,000 -244 Level Denver Center
Thu 08:54:59 PM 38.4761 -107.8367 92° East 468 539 40,500 -919 Descending Denver Center
Thu 08:56:01 PM 38.4694 -107.6797 93° East 465 535 39,100 -1,306 Descending Denver Center
Thu 08:57:03 PM 38.4633 -107.4969 92° East 464 534 37,800 -823 Descending Denver Center
Thu 08:58:05 PM 38.4572 -107.3392 93° East 468 539 37,400 -387 Descending Denver Center
Thu 08:59:07 PM 38.4572 -107.1717 90° East 472 543 37,000 -146 Descending Denver Center
Thu 09:00:08 PM 38.5011 -107.0208 70° East 457 526 37,100  Climbing Denver Center
Thu 09:01:10 PM 38.5475 -106.8744 68° East 446 513 37,000 -871 Descending Denver Center
Thu 09:02:12 PM 38.6008 -106.7036 68° East 437 503 35,300 -1,694 Descending Denver Center
Thu 09:03:14 PM 38.6472 -106.5556 68° East 449 517 33,500 -1,790 Descending Denver Center
Thu 09:04:16 PM 38.6917 -106.4119 68° East 439 505 31,600 -1,935 Descending Denver Center
Thu 09:05:18 PM 38.7356 -106.2675 69° East 438 504 29,500 -1,790 Descending Denver Center
Thu 09:06:20 PM 38.7842 -106.1094 68° East 432 497 27,900 -1,756 Descending Denver Center
Thu 09:07:21 PM 38.8300 -105.9575 69° East 429 494 25,900 -1,854 Descending Denver Center
Thu 09:08:23 PM 38.8700 -105.8217 69° East 426 490 24,100 -1,935 Descending Denver Center
Thu 09:09:25 PM 38.9375 -105.6894 57° Northeast 400 460 21,900 -1,839 Descending Denver Center
Thu 09:10:27 PM 38.9919 -105.5797 57° Northeast 384 442 20,300 -1,645 Descending Denver Center
Thu 09:11:29 PM 39.0525 -105.4611 57° Northeast 363 418 18,500 -1,452 Descending Denver Center
Thu 09:12:31 PM 39.1053 -105.3564 57° Northeast 349 402 17,300 -1,306 Descending Denver Center
Thu 09:13:33 PM 39.1567 -105.2558 57° Northeast 337 388 15,800 -1,403 Descending Denver Center
Thu 09:14:35 PM 39.2050 -105.1789 51° Northeast 277 319 14,400 -1,645 Descending Denver Center
Thu 09:15:37 PM 39.2553 -105.0939 53° Northeast 279 321 12,400 -1,500 Descending Denver Center
Thu 09:16:39 PM 39.3131 -105.0281 41° Northeast 278 320 11,300 -871 Descending Denver Center
Thu 09:17:41 PM 39.3689 -104.9547 45° Northeast 268 308 10,600 -1,306 Descending Denver Center
Thu 09:18:43 PM 39.4175 -104.8922 45° Northeast 251 289 8,600 -1,306 Descending Denver Center
Thu 09:19:45 PM 39.4678 -104.8453 36° Northeast 196 226 7,900 -823 Descending Denver Center
Thu 09:20:47 PM 39.5100 -104.8478 357° North 149 171 6,900 -871 Descending Denver Center
Thu 09:21:49 PM 39.5486 -104.8492 358° North 137 158 6,100 -532 Descending Denver Center
Thu 09:22:51 PM 39.5719 -104.8492 360° North 111 128 5,800 -290 Descending Denver Center
Thu 09:24:00 PM 39.5701 -104.8493 North  Level Estimated
Thu 09:31:00 PM 39.5701 -104.8493 North  Level Estimated
Thu 09:32:00 PM 39.5701 -104.8493 North  Level Estimated

Login

Don't have an account? Register now (free) for customized features, flight alerts, and more!